Aviation Digital Data Service (ADDS)

Output produced by METARs form (0227 UTC 29 November 2020)
found at http://www.aviationweather.gov/metar/data/
 
Forecast for: CYLW (KELOWNA APT , BC, CA)
Text: TAF CYLW 290038Z 2901/2913 36005KT P6SM SCT060 SCT200 RMK FCST BASED ON AUTO OBS. NXT FCST BY 290700Z
Forecast period: 0100 to 1300 UTC 29 November 2020
Forecast type: FROM: standard forecast or significant change
Winds: from the N (360 degrees) at 6 MPH (5 knots; 2.6 m/s)
Visibility: 6 or more miles (10+ km)
Ceiling: at least 12,000 feet AGL
Clouds: scattered clouds at 6000 feet AGL
scattered clouds at 20000 feet AGL
Weather: no significant weather forecast for this period